Skip to main content

NOAA/GLERL Met Station at Chicago, IL

Previous 5 days (top of hour only)
See also Previous 3 Hours (2 minute increments)
Jump down to Data
Switch to [English][Metric]
Zoom: Click and drag, Pan: shift-click and drag, Unzoom: double-click, Unzoom All




Note: Speed = mean wind during 2-minute period at top of hour,
Gust = max wind during 2-minute period at top of hour,
Peak = max wind during entire hour.
• See also 5-day windrose plot


NOAA/GLERL Met Station at Chicago, IL

Previous 5 days (top of hour only)
See also Previous 3 Hours (2 minute increments)
Jump up to Graphs
Switch to [English][Metric]
                  Wind  Wind  Wind   Air   Dew   Rel
                   Spd   Gst   Dir  Temp    Pt   Hum
YYYY-MM-DD   CDT   kts   kts   deg     F     F     %
2020-07-13 00:00 -99.0 -99.0   -99   0.0   0.0   0.0
2020-07-12 12:00  18.1  19.2    23  71.1  64.6  79.7
2020-07-12 11:00  18.9  20.8    17  72.0  64.0  75.7
2020-07-12 10:00  22.2  24.1    24  72.0  64.9  78.0
2020-07-12 09:00  24.1  26.4    16  72.9  70.0  90.5
2020-07-12 08:00  11.9  13.0   328  74.5  70.0  85.6
2020-07-12 07:00   8.2  10.5    97  72.1  64.2  75.7
2020-07-12 06:00   6.4   7.2   122  74.5  66.7  76.3
2020-07-12 05:00   4.9   5.8   111  74.8  71.7  89.7
2020-07-12 04:00   7.6   9.3   288  74.7  70.8  87.7
2020-07-12 03:00   8.0   8.6   277  75.2  70.0  83.5
2020-07-12 02:00  10.3  11.3   278  75.4  69.1  80.4
2020-07-12 01:00   8.4   9.1   248  75.4  68.3  78.3
2020-07-12 00:00   9.3   9.7   136  77.4  70.2  78.2
2020-07-11 23:00   5.6   5.8   142  76.3  74.9  95.3
2020-07-11 22:00   6.0   6.4   131  76.6  74.0  91.3
2020-07-11 21:00   7.6   8.7   200  76.8  74.0  90.8
2020-07-11 20:00   5.4   6.0    57  78.4  69.8  74.5
2020-07-11 19:00   7.6   8.2    27  79.0  69.9  73.3
2020-07-11 18:00   5.2   5.6   321  82.0  65.3  56.4
2020-07-11 17:00  11.1  13.0   299  81.1  67.3  62.3
2020-07-11 16:00  10.7  12.1   287  81.3  64.1  55.2
2020-07-11 15:00  10.1  11.5   266  78.4  66.1  65.4
2020-07-11 14:00   9.5  11.1   286  76.5  67.6  73.7
2020-07-11 13:00  21.0  22.7   271  78.6  66.8  66.5
2020-07-11 12:00  19.6  22.4   292  81.7  62.0  50.7
2020-07-11 11:00  13.4  15.4   292  81.1  62.3  52.1
2020-07-11 10:00   7.8   8.2   291  79.0  66.8  65.8
2020-07-11 09:00   5.8   6.0   278  77.2  66.6  69.4
2020-07-11 08:00   6.2   6.8   296  75.4  67.3  75.7
2020-07-11 07:00   8.9  10.1   302  75.0  66.6  74.6
2020-07-11 06:00  13.8  15.0   300  74.8  66.0  73.7
2020-07-11 05:00  14.0  15.9   301  75.2  66.1  73.0
2020-07-11 04:00  13.6  14.6   302  75.6  66.6  73.3
2020-07-11 03:00  15.2  16.1   303  76.3  67.0  72.5
2020-07-11 02:00  15.9  18.3   306  76.8  66.7  70.4
2020-07-11 01:00  14.8  16.1   300  77.5  66.8  69.0
2020-07-11 00:00  15.9  18.9   300  78.1  66.9  68.1
2020-07-10 23:00  13.0  14.6   301  78.8  67.6  68.1
2020-07-10 22:00  12.2  14.4   295  79.9  66.7  63.5
2020-07-10 21:00  11.3  12.1   314  80.4  66.7  62.5
2020-07-10 20:00  18.3  20.0   310  81.5  66.6  60.1
2020-07-10 19:00  17.3  18.3   317  81.3  65.9  58.9
2020-07-10 18:00  20.6  22.9   312  82.4  66.4  57.8
2020-07-10 17:00  17.5  19.8   311  82.4  67.3  59.8
2020-07-10 16:00  15.0  15.9   313  81.7  67.9  62.4
2020-07-10 15:00   9.7  10.5   350  77.9  72.5  83.2
2020-07-10 14:00  10.7  11.9   359  76.8  71.5  83.4
2020-07-10 13:00  11.3  12.6   351  75.9  70.8  84.0
2020-07-10 12:00  12.2  13.8   333  74.5  69.9  85.4
2020-07-10 11:00  15.2  16.3   343  72.7  69.6  89.9
2020-07-10 10:00  15.0  16.1   314  71.8  70.2  94.6
2020-07-10 09:00  21.8  25.1   313  71.4  71.0  98.6
2020-07-10 08:00  18.7  21.2   307  71.8  71.5  99.2
2020-07-10 07:00  13.2  14.2   312  71.8  71.6  99.3
2020-07-10 06:00   3.3   3.3   235  73.0  73.0  99.9
2020-07-10 05:00   8.6   8.7   194  73.2  72.1  96.2
2020-07-10 04:00   4.1   4.5   135  73.6  72.8  97.2
2020-07-10 03:00   1.6   1.9    95  73.8  71.4  92.2
2020-07-10 02:00   3.9   4.1   277  72.7  72.8 100.3
2020-07-10 01:00   5.4   5.8   287  72.3  71.9  98.4
2020-07-10 00:00  28.6  31.9   250  72.9  73.0 100.4
2020-07-09 23:00  16.7  17.5   184  82.6  76.4  81.3
2020-07-09 22:00  18.7  20.4   168  82.9  76.7  81.0
2020-07-09 21:00  20.0  21.6   169  84.2  77.0  78.5
2020-07-09 20:00  19.6  20.6   174  85.5  75.4  71.5
2020-07-09 19:00  21.8  24.5   173  86.2  76.2  71.7
2020-07-09 18:00  19.1  20.0   171  86.4  76.0  70.7
2020-07-09 17:00  13.0  15.0   162  85.8  76.3  72.9
2020-07-09 16:00  12.2  15.0   156  86.5  75.5  69.2
2020-07-09 15:00  10.5  11.1   172  87.1  74.6  66.0
2020-07-09 14:00  15.2  16.1   128  82.4  76.8  82.8
2020-07-09 13:00  13.6  15.2   119  81.0  76.7  86.6
2020-07-09 12:00  14.4  15.2   128  79.9  76.1  88.1
2020-07-09 11:00  14.6  15.4   130  79.2  76.0  89.9
2020-07-09 10:00  11.5  12.2   130  79.9  75.7  86.8
2020-07-09 09:00   3.5   5.2   153  80.2  75.8  86.0
2020-07-09 08:00   6.2   6.8   173  78.6  74.1  85.9
2020-07-09 07:00  11.5  12.4   196  79.0  73.5  83.1
2020-07-09 06:00  10.3  10.9   190  78.1  73.5  85.6
2020-07-09 05:00   7.2   8.2   263  80.1  72.8  78.1
2020-07-09 04:00   7.0   8.6   198  79.7  72.9  79.5
2020-07-09 03:00   8.7   9.3   177  80.2  73.0  78.1
2020-07-09 02:00   7.2   7.6   181  79.7  74.8  84.7
2020-07-09 01:00   8.6   8.7   177  80.4  73.6  79.4
2020-07-09 00:00   6.4   6.6   180  80.1  75.5  85.8
2020-07-08 23:00   5.4   6.0   159  80.4  74.7  82.4
2020-07-08 22:00   6.4   7.0   148  81.1  73.6  77.4
2020-07-08 21:00   5.6   6.2   126  81.7  72.3  72.8
2020-07-08 20:00   7.2   7.6   178  81.9  72.5  72.9
2020-07-08 19:00   7.4   8.6   152  80.2  77.0  89.8
2020-07-08 18:00   9.1   9.7   117  81.3  76.4  84.7
2020-07-08 17:00   7.2   8.2   102  80.4  77.3  90.0
2020-07-08 16:00   8.4   8.9    65  79.7  77.2  91.8
2020-07-08 15:00   7.4   7.8    95  79.3  76.8  91.8
2020-07-08 14:00   8.2   8.6   100  79.0  77.1  94.0
2020-07-08 13:00   6.4   6.8    76  79.0  77.0  93.4
2020-07-08 12:00   6.6   7.0   115  78.4  76.9  95.0
2020-07-08 11:00   5.2   5.6    89  77.9  75.9  93.6
2020-07-08 10:00   5.8   6.4   354  77.0  76.3  97.6
2020-07-08 09:00   1.7   2.1   179  78.1  76.0  93.1
2020-07-08 08:00   2.1   2.5   148  77.5  75.8  94.4
2020-07-08 07:00   5.1   5.6    64  76.6  75.9  97.5
2020-07-08 06:00   3.5   4.1   116  76.6  75.7  96.7
2020-07-08 05:00   6.2   6.6    58  76.1  74.0  93.1
2020-07-08 04:00   3.5   3.9    22  76.3  74.4  93.9
2020-07-08 03:00   5.2   5.2   261  76.1  73.9  92.8
2020-07-08 02:00   7.8   8.2   214  76.1  74.8  95.8
2020-07-08 01:00   6.6   9.5   160  75.9  75.0  96.8
2020-07-08 00:00   8.2   8.4    53  75.0  71.6  88.9
2020-07-07 23:00  14.2  15.2   299  75.0  72.2  90.9
2020-07-07 22:00  20.8  23.7   350  76.1  73.4  91.2
2020-07-07 21:00   2.5   3.3    89  80.2  77.3  90.7
2020-07-07 20:00   1.7   2.5   252  80.2  77.9  92.3
2020-07-07 19:00   7.8   8.4   106  81.0  74.6  80.7